Time;durP1;ratioP1;P1;durP2;ratioP2;P2;SDS_P1;SDS_P2;PMS_P1;PMS_P2;Temp;Humidity;BMP_temperature;BMP_pressure;BME280_temperature;BME280_humidity;BME280_pressure;Samples;Min_cycle;Max_cycle;Signal;HPM_P1;HPM_P2
2021/08/27 00:00:32;;;;;;;;;;;;;;;21.73;63.10;102053.09;7280702;19;153962;-49
2021/08/27 00:02:59;;;;;;;;;;;;;;;21.71;63.03;102050.56;7285483;19;153284;-50
2021/08/27 00:05:27;;;;;;;;;;;;;;;21.73;63.31;102050.28;7285354;19;153764;-50
2021/08/27 00:07:55;;;;;;;;;;;;;;;21.72;63.51;102043.81;7291126;19;152484;-50
2021/08/27 00:10:24;;;;;;;;;;;;;;;21.74;63.59;102047.19;7285164;19;151709;-50
2021/08/27 00:12:51;;;;;;;;;;;;;;;21.76;63.52;102044.06;7283883;19;153814;-50
2021/08/27 00:15:19;;;;;;;;;;;;;;;21.76;63.60;102034.81;7283311;19;151904;-50
2021/08/27 00:17:47;;;;;;;;;;;;;;;21.76;63.69;102040.44;7285150;19;153539;-50
2021/08/27 00:20:14;;;;;;;;;;;;;;;21.75;63.57;102031.16;7280296;19;153882;-50
2021/08/27 00:22:42;;;;;;;;;;;;;;;21.75;63.61;102036.78;7285843;19;151842;-50
2021/08/27 00:25:09;;;;;;;;;;;;;;;21.76;63.99;102037.63;7285337;19;153264;-50
2021/08/27 00:27:37;;;;;;;;;;;;;;;21.75;63.65;102031.16;7283462;19;152713;-49
2021/08/27 00:30:05;;;;;;;;;;;;;;;21.76;63.69;102034.81;7289992;19;151964;-49
2021/08/27 00:32:32;;;;;;;;;;;;;;;21.78;63.93;102038.16;7283797;19;153464;-49
2021/08/27 00:35:04;;;;;;;;;;;;;;;21.77;64.19;102028.88;7283727;19;152155;-50
2021/08/27 00:37:32;;;;;;;;;;;;;;;21.78;63.81;102026.91;7285230;19;153703;-50
2021/08/27 00:40:00;;;;;;;;;;;;;;;21.77;64.32;102028.03;7281072;19;152727;-50
2021/08/27 00:42:27;;;;;;;;;;;;;;;21.78;64.01;102026.91;7284010;19;152532;-50
2021/08/27 00:44:54;;;;;;;;;;;;;;;21.77;64.04;102026.06;7283079;19;152935;-49
2021/08/27 00:47:21;;;;;;;;;;;;;;;21.78;64.12;102032.53;7279519;19;156055;-50
2021/08/27 00:49:49;;;;;;;;;;;;;;;21.78;64.25;102027.75;7283482;19;151922;-49
2021/08/27 00:52:16;;;;;;;;;;;;;;;21.79;64.01;102031.41;7283816;19;152880;-49
2021/08/27 00:54:45;;;;;;;;;;;;;;;21.80;64.04;102035.91;7283515;19;151862;-49
2021/08/27 00:57:12;;;;;;;;;;;;;;;21.80;64.17;102027.47;7282406;19;152659;-49
2021/08/27 00:59:39;;;;;;;;;;;;;;;21.80;64.44;102035.91;7279764;19;154299;-49
2021/08/27 01:02:06;;;;;;;;;;;;;;;21.80;64.34;102033.94;7284420;19;151662;-49
2021/08/27 01:04:35;;;;;;;;;;;;;;;21.80;64.30;102036.75;7282155;19;152881;-49
2021/08/27 01:07:05;;;;;;;;;;;;;;;21.82;64.16;102031.66;7281191;19;154201;-49
2021/08/27 01:09:34;;;;;;;;;;;;;;;21.81;64.62;102026.31;7281867;19;154029;-49
2021/08/27 01:12:05;;;;;;;;;;;;;;;21.81;64.65;102027.16;7283695;19;153125;-50
2021/08/27 01:14:34;;;;;;;;;;;;;;;21.80;64.27;102033.09;7284421;19;151905;-50
2021/08/27 01:17:03;;;;;;;;;;;;;;;21.81;64.71;102023.50;7284425;19;152449;-49
2021/08/27 01:19:31;;;;;;;;;;;;;;;21.81;64.50;102018.72;7279969;19;153469;-50
2021/08/27 01:22:08;;;;;;;;;;;;;;;21.84;64.74;102017.31;7281937;19;152354;-50
2021/08/27 01:24:36;;;;;;;;;;;;;;;21.83;64.63;102024.91;7282644;19;151773;-49
2021/08/27 01:27:05;;;;;;;;;;;;;;;21.83;64.43;102021.25;7282733;19;153049;-50
2021/08/27 01:29:42;;;;;;;;;;;;;;;21.82;64.36;102014.78;7280983;19;151775;-50
2021/08/27 01:32:10;;;;;;;;;;;;;;;21.86;64.34;102020.66;7283411;19;152926;-49
2021/08/27 01:34:37;;;;;;;;;;;;;;;21.83;64.75;102015.63;7285125;19;153298;-50
2021/08/27 01:37:07;;;;;;;;;;;;;;;21.83;64.83;102018.44;7281789;19;152137;-49
2021/08/27 01:39:37;;;;;;;;;;;;;;;21.84;64.68;102018.16;7279844;19;152234;-50
2021/08/27 01:42:06;;;;;;;;;;;;;;;21.85;64.87;102016.19;7282680;19;151476;-50
2021/08/27 01:44:34;;;;;;;;;;;;;;;21.85;64.82;102010.56;7282102;19;153859;-49
2021/08/27 01:47:03;;;;;;;;;;;;;;;21.83;64.80;102022.09;7280718;19;152831;-50
2021/08/27 01:49:30;;;;;;;;;;;;;;;21.84;64.59;102018.16;7282358;19;151905;-50
2021/08/27 01:51:59;;;;;;;;;;;;;;;21.85;64.56;102011.38;7279181;19;155267;-49
2021/08/27 01:54:27;;;;;;;;;;;;;;;21.86;64.64;102017.84;7277017;19;152765;-50
2021/08/27 01:56:54;;;;;;;;;;;;;;;21.86;64.89;102015.03;7289652;19;151800;-50
2021/08/27 01:59:22;;;;;;;;;;;;;;;21.85;64.79;102011.38;7281167;19;153935;-49
2021/08/27 02:01:49;;;;;;;;;;;;;;;21.86;64.91;102015.88;7278912;19;151895;-50
2021/08/27 02:04:17;;;;;;;;;;;;;;;21.84;65.07;101998.47;7279451;19;153188;-50
2021/08/27 02:06:44;;;;;;;;;;;;;;;21.85;64.71;102004.94;7277700;19;154175;-49
2021/08/27 02:09:12;;;;;;;;;;;;;;;21.85;64.75;102013.38;7283167;19;151739;-49
2021/08/27 02:11:40;;;;;;;;;;;;;;;21.88;65.16;102018.41;7281679;19;153075;-50
2021/08/27 02:14:07;;;;;;;;;;;;;;;21.87;64.80;102011.94;7280289;19;154137;-49
2021/08/27 02:16:34;;;;;;;;;;;;;;;21.87;65.22;102011.09;7281227;19;152068;-50
2021/08/27 02:19:02;;;;;;;;;;;;;;;21.88;65.02;102018.41;7288026;19;153652;-49
2021/08/27 02:21:31;;;;;;;;;;;;;;;21.85;64.78;102017.00;7279400;19;152069;-49
2021/08/27 02:23:59;;;;;;;;;;;;;;;21.85;64.88;102016.19;7284252;19;153669;-49
2021/08/27 02:26:26;;;;;;;;;;;;;;;21.85;65.08;102025.44;7287521;19;154450;-49
2021/08/27 02:28:55;;;;;;;;;;;;;;;21.86;65.21;102026.28;7287599;19;151926;-50
2021/08/27 02:31:23;;;;;;;;;;;;;;;21.85;65.43;102019.81;7290017;19;153700;-50
2021/08/27 02:33:51;;;;;;;;;;;;;;;21.84;65.41;102020.97;7284555;19;155360;-50
2021/08/27 02:36:18;;;;;;;;;;;;;;;21.86;65.47;102026.28;7286661;19;151921;-50
2021/08/27 02:38:48;;;;;;;;;;;;;;;21.84;65.42;102018.16;7285191;19;152687;-49
2021/08/27 02:41:15;;;;;;;;;;;;;;;21.86;65.40;102029.09;7291933;19;154188;-50
2021/08/27 02:43:42;;;;;;;;;;;;;;;21.87;65.50;102025.16;7286116;19;152905;-50
2021/08/27 02:46:09;;;;;;;;;;;;;;;21.87;65.46;102023.19;7286594;19;153905;-50
2021/08/27 02:48:36;;;;;;;;;;;;;;;21.85;65.44;102022.63;7286646;19;151853;-49
2021/08/27 02:51:08;;;;;;;;;;;;;;;21.85;65.31;102022.63;7287409;19;153252;-49
2021/08/27 02:53:39;;;;;;;;;;;;;;;21.84;65.11;102022.94;7279470;19;153455;-50
2021/08/27 02:56:13;;;;;;;;;;;;;;;21.84;65.42;102025.75;7285397;19;151707;-50
2021/08/27 02:58:40;;;;;;;;;;;;;;;21.83;65.22;102024.91;7286606;19;152645;-49
2021/08/27 03:01:09;;;;;;;;;;;;;;;21.85;65.52;102016.19;7286473;19;154169;-49
2021/08/27 03:03:38;;;;;;;;;;;;;;;21.85;65.09;102024.63;7294487;19;151805;-50
2021/08/27 03:06:10;;;;;;;;;;;;;;;21.86;65.55;102023.47;7286656;19;152810;-49
2021/08/27 03:08:42;;;;;;;;;;;;;;;21.86;65.27;102017.84;7283673;19;152277;-50
2021/08/27 03:11:19;;;;;;;;;;;;;;;21.85;65.85;102017.00;7286854;19;153306;-50
2021/08/27 03:13:48;;;;;;;;;;;;;;;21.87;65.49;102019.53;7285070;19;153620;-51
2021/08/27 03:16:16;;;;;;;;;;;;;;;21.87;65.27;102013.91;7284369;19;151944;-50
2021/08/27 03:18:53;;;;;;;;;;;;;;;21.87;65.39;102011.94;7283548;19;152864;-50
2021/08/27 03:21:22;;;;;;;;;;;;;;;21.84;65.29;102009.72;7285046;19;153436;-50
2021/08/27 03:23:50;;;;;;;;;;;;;;;21.85;65.76;102007.75;7291392;19;152115;-50
2021/08/27 03:26:21;;;;;;;;;;;;;;;21.88;65.74;102008.00;7285765;19;153425;-49
2021/08/27 03:28:50;;;;;;;;;;;;;;;21.87;65.43;102002.66;7284596;19;152042;-50
2021/08/27 03:31:18;;;;;;;;;;;;;;;21.87;65.16;102002.66;7286384;19;152108;-49
2021/08/27 03:33:45;;;;;;;;;;;;;;;21.86;65.47;102015.88;7284315;19;153850;-50
2021/08/27 03:36:12;;;;;;;;;;;;;;;21.85;65.40;102005.75;7284920;19;151807;-49
2021/08/27 03:38:39;;;;;;;;;;;;;;;21.85;65.60;102005.75;7286396;19;152658;-49
2021/08/27 03:41:06;;;;;;;;;;;;;;;21.84;65.38;102006.91;7284795;19;154134;-49
2021/08/27 03:43:34;;;;;;;;;;;;;;;21.86;65.29;102010.25;7286265;19;151937;-50
2021/08/27 03:46:01;;;;;;;;;;;;;;;21.84;65.22;102011.69;7293337;19;152739;-50
2021/08/27 03:48:28;;;;;;;;;;;;;;;21.84;65.41;102009.72;7286288;19;152203;-50
2021/08/27 03:50:56;;;;;;;;;;;;;;;21.86;65.36;102006.59;7287216;19;152688;-50
2021/08/27 03:53:23;;;;;;;;;;;;;;;21.86;65.54;102006.59;7278239;19;154120;-50
2021/08/27 03:55:51;;;;;;;;;;;;;;;21.83;65.23;101995.94;7282219;19;152457;-51
2021/08/27 03:58:20;;;;;;;;;;;;;;;21.87;65.12;101999.84;7287003;19;152759;-50
2021/08/27 04:00:48;;;;;;;;;;;;;;;21.84;65.30;102000.44;7284108;19;152747;-50
2021/08/27 04:03:15;;;;;;;;;;;;;;;21.83;65.62;102004.38;7286926;19;151745;-49
2021/08/27 04:05:52;;;;;;;;;;;;;;;21.83;65.35;101995.94;7284963;19;153484;-50
2021/08/27 04:08:19;;;;;;;;;;;;;;;21.82;65.42;102000.72;7293020;19;153468;-50
2021/08/27 04:10:46;;;;;;;;;;;;;;;21.82;65.59;101997.06;7284632;19;152982;-50
2021/08/27 04:13:13;;;;;;;;;;;;;;;21.81;65.48;101999.03;7284363;19;153893;-50
2021/08/27 04:15:39;;;;;;;;;;;;;;;21.80;65.59;101997.38;7286548;19;152519;-50
2021/08/27 04:18:06;;;;;;;;;;;;;;;21.81;65.20;101996.22;7284162;19;152735;-49
2021/08/27 04:20:33;;;;;;;;;;;;;;;21.81;65.69;101993.41;7283168;19;152232;-50
2021/08/27 04:23:00;;;;;;;;;;;;;;;21.81;65.51;101993.41;7286421;19;151704;-50
2021/08/27 04:25:27;;;;;;;;;;;;;;;21.80;65.39;101991.75;7283828;19;153665;-50
2021/08/27 04:27:54;;;;;;;;;;;;;;;21.80;65.52;101988.94;7285467;19;153333;-51
2021/08/27 04:30:21;;;;;;;;;;;;;;;21.80;65.74;101991.75;7291133;19;152081;-51
2021/08/27 04:32:48;;;;;;;;;;;;;;;21.79;65.67;101992.88;7283250;19;153278;-51
2021/08/27 04:35:16;;;;;;;;;;;;;;;21.80;65.29;101996.53;7286026;19;151676;-50
2021/08/27 04:37:42;;;;;;;;;;;;;;;21.80;65.44;101993.72;7282954;19;152774;-50
2021/08/27 04:40:10;;;;;;;;;;;;;;;21.81;65.60;101995.38;7283809;19;152894;-50
2021/08/27 04:42:37;;;;;;;;;;;;;;;21.81;65.36;101986.94;7282022;19;151643;-50
2021/08/27 04:45:04;;;;;;;;;;;;;;;21.80;65.71;101996.53;7285135;19;152678;-49
2021/08/27 04:47:31;;;;;;;;;;;;;;;21.78;65.64;101998.78;7280582;19;154337;-49
2021/08/27 04:49:58;;;;;;;;;;;;;;;21.79;65.34;102006.09;7285475;19;154294;-50
2021/08/27 04:52:25;;;;;;;;;;;;;;;21.80;65.56;102004.97;7289746;19;153900;-50
2021/08/27 04:54:52;;;;;;;;;;;;;;;21.78;65.49;102002.44;7282063;19;151746;-50
2021/08/27 04:57:19;;;;;;;;;;;;;;;21.77;65.33;102008.34;7284827;19;153348;-50
2021/08/27 04:59:47;;;;;;;;;;;;;;;21.75;65.71;101997.41;7282261;19;154120;-50
2021/08/27 05:02:14;;;;;;;;;;;;;;;21.75;65.48;101997.41;7283765;19;151616;-50
2021/08/27 05:04:41;;;;;;;;;;;;;;;21.77;65.55;101988.66;7284106;19;152728;-50
2021/08/27 05:07:08;;;;;;;;;;;;;;;21.78;65.66;102001.59;7283762;19;154514;-49
2021/08/27 05:09:35;;;;;;;;;;;;;;;21.76;65.71;101998.25;7282338;19;152050;-50
2021/08/27 05:12:03;;;;;;;;;;;;;;;21.78;65.31;102001.59;7280576;19;153451;-50
2021/08/27 05:14:30;;;;;;;;;;;;;;;21.78;65.49;102005.25;7287996;19;153451;-50
2021/08/27 05:16:57;;;;;;;;;;;;;;;21.76;65.21;102010.31;7282785;19;153623;-50
2021/08/27 05:19:24;;;;;;;;;;;;;;;21.75;65.39;102003.03;7283492;19;153900;-50
2021/08/27 05:21:51;;;;;;;;;;;;;;;21.79;65.90;102009.75;7281337;19;151602;-50
2021/08/27 05:24:18;;;;;;;;;;;;;;;21.79;65.72;102008.91;7283069;19;153356;-50
2021/08/27 05:26:44;;;;;;;;;;;;;;;21.79;65.46;102008.91;7281035;19;153979;-50
2021/08/27 05:29:11;;;;;;;;;;;;;;;21.78;65.58;102012.84;7281251;19;151706;-49
2021/08/27 05:31:38;;;;;;;;;;;;;;;21.77;65.79;102019.59;7284276;19;152284;-49
2021/08/27 05:34:07;;;;;;;;;;;;;;;21.79;65.84;102022.97;7286768;19;152338;-49
2021/08/27 05:36:34;;;;;;;;;;;;;;;21.77;65.41;102020.44;7282466;19;152560;-50
2021/08/27 05:39:01;;;;;;;;;;;;;;;21.78;65.78;102024.09;7278157;19;154605;-50
2021/08/27 05:41:28;;;;;;;;;;;;;;;21.78;65.38;102024.09;7281869;19;151848;-50
2021/08/27 05:43:55;;;;;;;;;;;;;;;21.78;65.50;102024.94;7281644;19;151713;-50
2021/08/27 05:46:22;;;;;;;;;;;;;;;21.79;65.58;102025.78;7282878;19;153530;-50
2021/08/27 05:48:49;;;;;;;;;;;;;;;21.77;65.58;102028.88;7281757;19;152473;-50
2021/08/27 05:51:16;;;;;;;;;;;;;;;21.77;65.37;102022.41;7281277;19;152823;-51
2021/08/27 05:53:43;;;;;;;;;;;;;;;21.78;65.55;102029.72;7280079;19;154149;-50
2021/08/27 05:56:11;;;;;;;;;;;;;;;21.77;65.65;102031.69;7286791;19;152454;-50
2021/08/27 05:58:39;;;;;;;;;;;;;;;21.77;65.43;102045.75;7282468;19;154520;-50
2021/08/27 06:01:06;;;;;;;;;;;;;;;21.77;65.43;102048.56;7288715;19;151671;-50
2021/08/27 06:03:33;;;;;;;;;;;;;;;21.74;65.16;102047.19;7288058;19;152684;-49
2021/08/27 06:06:01;;;;;;;;;;;;;;;21.75;65.66;102053.66;7288002;19;153587;-51
2021/08/27 06:08:29;;;;;;;;;;;;;;;21.74;65.59;102050.00;7289510;19;151727;-50
2021/08/27 06:10:56;;;;;;;;;;;;;;;21.77;65.73;102050.53;7289919;19;153678;-50
2021/08/27 06:13:24;;;;;;;;;;;;;;;21.77;65.59;102054.19;7287505;19;154503;-49
2021/08/27 06:15:51;;;;;;;;;;;;;;;21.75;65.36;102045.22;7289859;19;155218;-49
2021/08/27 06:18:19;;;;;;;;;;;;;;;21.79;65.48;102051.09;7294480;19;152071;-50
2021/08/27 06:20:49;;;;;;;;;;;;;;;21.80;65.85;102058.41;7287553;19;151997;-50
2021/08/27 06:23:17;;;;;;;;;;;;;;;21.82;66.34;102062.59;7285394;19;151913;-50
2021/08/27 06:25:45;;;;;;;;;;;;;;;21.83;66.34;102055.84;7283883;19;154628;-50
2021/08/27 06:28:14;;;;;;;;;;;;;;;21.87;66.29;102068.22;7286911;19;151601;-50
2021/08/27 06:30:42;;;;;;;;;;;;;;;21.87;66.35;102070.19;7288137;19;153236;-50
2021/08/27 06:33:09;;;;;;;;;;;;;;;21.88;66.39;102075.53;7285613;19;154158;-49
2021/08/27 06:35:36;;;;;;;;;;;;;;;21.89;66.45;102068.78;7285341;19;151851;-50
2021/08/27 06:40:40;;;;;;;;;;;;;;;21.94;66.23;102079.19;7293428;19;152310;-50
2021/08/27 06:43:08;;;;;;;;;;;;;;;21.94;66.16;102087.63;7285189;19;153044;-50
2021/08/27 06:45:37;;;;;;;;;;;;;;;21.95;66.61;102080.84;7286039;19;154045;-50
2021/08/27 06:48:06;;;;;;;;;;;;;;;21.96;66.63;102080.56;7288799;19;152107;-50
2021/08/27 06:50:38;;;;;;;;;;;;;;;21.96;66.42;102082.53;7286188;19;152671;-49
2021/08/27 06:53:07;;;;;;;;;;;;;;;21.97;66.23;102082.25;7285430;19;154362;-50
2021/08/27 06:55:35;;;;;;;;;;;;;;;22.01;66.41;102086.16;7288700;19;152037;-50
2021/08/27 06:58:08;;;;;;;;;;;;;;;22.04;66.40;102090.38;7285689;19;153385;-50
2021/08/27 07:00:50;;;;;;;;;;;;;;;22.07;66.42;102089.81;7286047;19;152583;-49
2021/08/27 07:03:19;;;;;;;;;;;;;;;22.10;67.48;102083.56;7292496;19;151705;-49
2021/08/27 07:05:55;;;;;;;;;;;;;;;22.14;67.44;102093.13;7283581;19;153304;-50
2021/08/27 07:08:27;;;;;;;;;;;;;;;22.21;67.77;102096.47;7284144;19;151705;-50
2021/08/27 07:10:56;;;;;;;;;;;;;;;22.26;68.00;102095.59;7283919;19;151770;-49
2021/08/27 07:13:25;;;;;;;;;;;;;;;22.33;67.71;102094.13;7285680;19;153330;-50
2021/08/27 07:15:55;;;;;;;;;;;;;;;22.38;68.04;102099.72;7286037;19;151771;-49
2021/08/27 07:18:24;;;;;;;;;;;;;;;22.44;68.22;102101.34;7284890;19;153336;-50
2021/08/27 07:20:52;;;;;;;;;;;;;;;22.50;68.03;102100.16;7286872;19;152448;-49
2021/08/27 07:23:20;;;;;;;;;;;;;;;22.54;67.84;102101.25;7285477;19;151954;-49
2021/08/27 07:25:47;;;;;;;;;;;;;;;22.59;67.37;102103.19;7293498;19;153215;-49
2021/08/27 07:28:17;;;;;;;;;;;;;;;22.63;67.70;102095.84;7285205;19;151761;-49
2021/08/27 07:30:47;;;;;;;;;;;;;;;22.69;67.55;102105.94;7286235;19;152183;-50
2021/08/27 07:33:15;;;;;;;;;;;;;;;22.74;67.50;102102.25;7285114;19;153973;-54
2021/08/27 07:35:44;;;;;;;;;;;;;;;22.77;67.50;102098.84;7285800;19;152418;-49
2021/08/27 07:38:11;;;;;;;;;;;;;;;22.80;67.44;102095.44;7286977;19;151630;-49
2021/08/27 07:40:40;;;;;;;;;;;;;;;22.84;67.23;102102.19;7285429;19;153664;-50
2021/08/27 07:43:09;;;;;;;;;;;;;;;22.88;66.64;102108.91;7282845;19;152318;-50
2021/08/27 07:45:38;;;;;;;;;;;;;;;22.91;66.19;102106.31;7291718;19;151737;-50
2021/08/27 07:48:05;;;;;;;;;;;;;;;22.93;65.93;102101.25;7284324;19;152135;-49
2021/08/27 07:50:32;;;;;;;;;;;;;;;22.95;65.38;102104.59;7284302;19;153504;-50
2021/08/27 07:53:00;;;;;;;;;;;;;;;22.97;65.54;102099.50;7281855;19;153770;-50
2021/08/27 07:55:28;;;;;;;;;;;;;;;22.99;64.92;102107.66;7286310;19;151788;-49
2021/08/27 07:57:58;;;;;;;;;;;;;;;23.00;64.91;102096.09;7284697;19;151795;-50
2021/08/27 08:00:27;;;;;;;;;;;;;;;23.01;65.34;102094.94;7282876;19;153216;-51
2021/08/27 08:02:58;;;;;;;;;;;;;;;23.04;65.12;102105.63;7284044;19;151914;-49
2021/08/27 08:05:35;;;;;;;;;;;;;;;23.05;64.96;102098.00;7286297;19;151804;-50
2021/08/27 08:08:06;;;;;;;;;;;;;;;23.05;64.47;102110.13;7292729;19;152590;-50
2021/08/27 08:10:34;;;;;;;;;;;;;;;23.07;64.23;102103.34;7285706;19;153281;-50
2021/08/27 08:13:01;;;;;;;;;;;;;;;23.08;64.62;102102.22;7284982;19;153438;-50
2021/08/27 08:15:30;;;;;;;;;;;;;;;23.08;64.37;102097.41;7283265;19;152147;-49
2021/08/27 08:18:04;;;;;;;;;;;;;;;23.10;64.38;102097.13;7287663;19;152189;-49
2021/08/27 08:20:33;;;;;;;;;;;;;;;23.09;64.44;102099.09;7285391;19;152734;-49
2021/08/27 08:23:03;;;;;;;;;;;;;;;23.09;63.86;102101.06;7283275;19;151694;-50
2021/08/27 08:25:40;;;;;;;;;;;;;;;23.10;64.28;102095.13;7286687;19;151821;-50
2021/08/27 08:28:13;;;;;;;;;;;;;;;23.11;64.09;102107.25;7284702;19;152835;-50
2021/08/27 08:30:48;;;;;;;;;;;;;;;23.10;63.93;102102.75;7276190;19;152042;-49
2021/08/27 08:33:24;;;;;;;;;;;;;;;23.10;63.92;102106.41;7278741;19;152837;-50
2021/08/27 08:35:57;;;;;;;;;;;;;;;23.12;63.92;102101.34;7273713;19;152454;-50
2021/08/27 08:38:36;;;;;;;;;;;;;;;23.10;63.76;102095.13;7281610;19;152013;-49
2021/08/27 08:41:15;;;;;;;;;;;;;;;23.13;64.14;102096.50;7282484;19;155183;-49
2021/08/27 08:43:47;;;;;;;;;;;;;;;23.12;63.82;102098.53;7281839;19;152724;-50
2021/08/27 08:46:20;;;;;;;;;;;;;;;23.13;63.69;102099.31;7278947;19;152013;-49
2021/08/27 08:48:49;;;;;;;;;;;;;;;23.14;63.79;102101.03;7276397;19;154093;-49
2021/08/27 08:51:26;;;;;;;;;;;;;;;23.13;63.46;102105.81;7278109;19;153217;-50
2021/08/27 08:54:07;;;;;;;;;;;;;;;23.14;63.83;102103.84;7285006;19;151738;-50
2021/08/27 08:56:36;;;;;;;;;;;;;;;23.14;63.89;102099.03;7284374;19;152263;-49
2021/08/27 08:59:03;;;;;;;;;;;;;;;23.13;63.67;102099.31;7278231;19;152810;-49
2021/08/27 09:01:31;;;;;;;;;;;;;;;23.13;63.74;102097.34;7281962;19;153901;-49
2021/08/27 09:04:11;;;;;;;;;;;;;;;23.14;63.78;102092.56;7281038;19;151951;-49
2021/08/27 09:06:50;;;;;;;;;;;;;;;23.15;63.81;102088.59;7281318;19;152483;-50
2021/08/27 09:09:31;;;;;;;;;;;;;;;23.15;63.45;102089.44;7281971;19;154396;-51
2021/08/27 09:11:58;;;;;;;;;;;;;;;23.13;63.45;102091.72;7283721;19;151703;-49
2021/08/27 09:14:29;;;;;;;;;;;;;;;23.15;63.71;102097.06;7283513;19;153063;-49
2021/08/27 09:17:03;;;;;;;;;;;;;;;23.15;63.88;102094.25;7288842;19;153763;-50
2021/08/27 09:19:49;;;;;;;;;;;;;;;23.15;63.61;102097.06;7280583;19;152012;-49
2021/08/27 09:22:16;;;;;;;;;;;;;;;23.14;63.73;102098.19;7282554;19;152117;-49
2021/08/27 09:24:43;;;;;;;;;;;;;;;23.13;63.50;102088.91;7282825;19;152106;-49
2021/08/27 09:27:11;;;;;;;;;;;;;;;23.16;63.62;102101.56;7282486;19;152660;-50
2021/08/27 09:29:39;;;;;;;;;;;;;;;23.16;63.45;102105.25;7282596;19;153232;-50
2021/08/27 09:32:17;;;;;;;;;;;;;;;23.14;64.01;102101.84;7283857;19;153608;-50
2021/08/27 09:34:44;;;;;;;;;;;;;;;23.15;64.07;102106.38;7287666;19;153150;-50
2021/08/27 09:37:11;;;;;;;;;;;;;;;23.14;64.23;102101.03;7288019;19;154618;-49
2021/08/27 09:39:38;;;;;;;;;;;;;;;23.15;63.98;102113.97;7295560;19;151740;-49
2021/08/27 09:42:04;;;;;;;;;;;;;;;23.14;64.09;102110.31;7288625;19;154978;-50
2021/08/27 09:44:31;;;;;;;;;;;;;;;23.14;64.42;102109.47;7285771;19;151933;-49
2021/08/27 09:47:05;;;;;;;;;;;;;;;23.14;64.17;102107.50;7290279;19;153492;-49
2021/08/27 09:49:33;;;;;;;;;;;;;;;23.16;63.96;102112.84;7287374;19;152646;-50
2021/08/27 09:52:01;;;;;;;;;;;;;;;23.16;63.95;102113.69;7286890;19;154137;-49
2021/08/27 09:54:29;;;;;;;;;;;;;;;23.18;64.12;102113.38;7288451;19;152702;-50
2021/08/27 09:56:57;;;;;;;;;;;;;;;23.18;64.18;102113.38;7288128;19;153292;-49
2021/08/27 09:59:30;;;;;;;;;;;;;;;23.14;64.43;102107.50;7290825;19;151798;-49
2021/08/27 10:01:57;;;;;;;;;;;;;;;23.12;63.73;102112.63;7284399;19;152811;-50
2021/08/27 10:04:24;;;;;;;;;;;;;;;23.17;63.39;102109.72;7281344;19;152162;-50
2021/08/27 10:06:51;;;;;;;;;;;;;;;23.01;61.69;102123.16;7287038;19;153351;-50
2021/08/27 10:09:18;;;;;;;;;;;;;;;22.90;58.82;102120.69;7286024;19;153973;-49
2021/08/27 10:11:47;;;;;;;;;;;;;;;22.85;60.17;102117.97;7286218;19;151849;-50
2021/08/27 10:14:14;;;;;;;;;;;;;;;22.80;60.10;102113.22;7288343;19;153472;-50
2021/08/27 10:16:43;;;;;;;;;;;;;;;22.76;59.34;102120.53;7285219;19;153296;-49
2021/08/27 10:19:11;;;;;;;;;;;;;;;22.81;57.82;102111.19;7287931;19;151907;-49
2021/08/27 10:21:39;;;;;;;;;;;;;;;22.77;57.97;102115.75;7294137;19;153386;-49
2021/08/27 10:24:06;;;;;;;;;;;;;;;22.73;59.59;102118.31;7286028;19;151550;-49
2021/08/27 10:26:33;;;;;;;;;;;;;;;22.70;57.95;102112.44;7287768;19;152269;-50
2021/08/27 10:29:05;;;;;;;;;;;;;;;22.67;56.90;102118.66;7285543;19;153345;-49
2021/08/27 10:31:48;;;;;;;;;;;;;;;22.67;57.18;102113.81;7287132;19;152369;-49
2021/08/27 10:34:16;;;;;;;;;;;;;;;22.65;56.63;102104.84;7285588;19;153423;-49
2021/08/27 10:36:47;;;;;;;;;;;;;;;22.65;55.92;102118.09;7284952;19;153252;-49
2021/08/27 10:39:17;;;;;;;;;;;;;;;22.60;56.25;102114.19;7278514;19;151985;-49
2021/08/27 10:41:45;;;;;;;;;;;;;;;22.58;55.88;102109.97;7286401;19;152794;-50
2021/08/27 10:44:15;;;;;;;;;;;;;;;22.58;56.19;102121.22;7289859;19;154898;-50
2021/08/27 10:47:02;;;;;;;;;;;;;;;22.51;55.93;102118.75;7283964;19;152180;-49
2021/08/27 10:49:32;;;;;;;;;;;;;;;22.48;56.04;102113.72;7283133;19;153660;-50
2021/08/27 10:52:19;;;;;;;;;;;;;;;22.47;55.68;102117.66;7286499;19;151888;-50
2021/08/27 10:54:51;;;;;;;;;;;;;;;22.46;55.42;102118.78;7284818;19;152541;-50
2021/08/27 10:57:28;;;;;;;;;;;;;;;22.46;55.79;102110.34;7283800;19;152613;-50
2021/08/27 11:00:00;;;;;;;;;;;;;;;22.47;56.05;102105.56;7281706;19;151808;-49
2021/08/27 11:02:49;;;;;;;;;;;;;;;22.44;56.36;102104.16;7282895;19;154257;-49
2021/08/27 11:05:22;;;;;;;;;;;;;;;22.45;56.08;102105.00;7284409;19;154264;-50
2021/08/27 11:07:59;;;;;;;;;;;;;;;22.41;56.09;102101.09;7290624;19;154063;-49
2021/08/27 11:10:28;;;;;;;;;;;;;;;22.38;56.22;102110.97;7285461;19;154167;-50
2021/08/27 11:12:58;;;;;;;;;;;;;;;22.38;56.56;102108.16;7286952;19;151865;-49
2021/08/27 11:15:28;;;;;;;;;;;;;;;22.35;56.09;102105.91;7284476;19;152093;-49
2021/08/27 11:17:57;;;;;;;;;;;;;;;22.35;56.43;102111.53;7281333;19;154266;-49
2021/08/27 11:20:27;;;;;;;;;;;;;;;22.35;55.87;102111.53;7286432;19;151620;-49
2021/08/27 11:22:54;;;;;;;;;;;;;;;22.35;56.55;102114.34;7284241;19;154397;-50
2021/08/27 11:25:23;;;;;;;;;;;;;;;22.34;56.18;102118.34;7282000;19;155373;-49
2021/08/27 11:27:56;;;;;;;;;;;;;;;22.34;56.10;102109.03;7286579;19;151830;-50
2021/08/27 11:30:32;;;;;;;;;;;;;;;22.32;56.55;102112.13;7291335;19;152194;-50
2021/08/27 11:33:01;;;;;;;;;;;;;;;22.33;56.36;102115.78;7286576;19;151958;-50
2021/08/27 11:35:47;;;;;;;;;;;;;;;22.33;56.94;102115.78;7283913;19;151896;-49
2021/08/27 11:38:32;;;;;;;;;;;;;;;22.31;57.26;102118.91;7284332;19;152522;-50
2021/08/27 11:41:02;;;;;;;;;;;;;;;22.29;56.22;102115.53;7284266;19;152371;-49
2021/08/27 11:43:37;;;;;;;;;;;;;;;22.28;55.33;102111.03;7280334;19;152640;-50
2021/08/27 11:46:24;;;;;;;;;;;;;;;22.31;55.73;102118.06;7282419;19;152413;-50
2021/08/27 11:49:03;;;;;;;;;;;;;;;22.27;56.06;102108.50;7281303;19;151947;-49
2021/08/27 11:51:35;;;;;;;;;;;;;;;22.24;55.71;102109.94;7281443;19;152497;-50
2021/08/27 11:54:15;;;;;;;;;;;;;;;22.26;55.32;102116.13;7287949;19;156228;-49
2021/08/27 11:56:55;;;;;;;;;;;;;;;22.25;55.41;102110.78;7275827;19;152418;-50
2021/08/27 11:59:34;;;;;;;;;;;;;;;22.21;55.51;102116.16;7283114;19;152307;-50
2021/08/27 12:02:13;;;;;;;;;;;;;;;22.21;54.38;102112.50;7280154;19;151957;-49
2021/08/27 12:04:53;;;;;;;;;;;;;;;22.20;55.06;102106.03;7278152;19;151848;-50
2021/08/27 12:07:23;;;;;;;;;;;;;;;22.20;54.46;102111.66;7283385;19;154027;-49
2021/08/27 12:10:02;;;;;;;;;;;;;;;22.21;54.80;102107.72;7281482;19;152322;-50
2021/08/27 12:12:31;;;;;;;;;;;;;;;22.22;55.42;102106.56;7285369;19;152700;-49
2021/08/27 12:14:58;;;;;;;;;;;;;;;22.23;55.46;102101.78;7290471;19;153572;-49
2021/08/27 12:17:26;;;;;;;;;;;;;;;22.24;55.74;102100.66;7283689;19;153679;-49
2021/08/27 12:19:54;;;;;;;;;;;;;;;22.22;56.34;102098.13;7283122;19;153249;-50
2021/08/27 12:22:22;;;;;;;;;;;;;;;22.22;56.42;102097.28;7284530;19;151585;-50
2021/08/27 12:24:50;;;;;;;;;;;;;;;22.23;56.85;102099.81;7280015;19;153711;-49
2021/08/27 12:27:17;;;;;;;;;;;;;;;22.21;56.27;102102.09;7283261;19;152183;-50
2021/08/27 12:29:47;;;;;;;;;;;;;;;22.24;56.68;102103.47;7282183;19;151958;-50
2021/08/27 12:32:17;;;;;;;;;;;;;;;22.21;56.25;102099.28;7284707;19;152763;-50
2021/08/27 12:34:47;;;;;;;;;;;;;;;22.21;56.04;102095.63;7278995;19;153343;-52
2021/08/27 12:37:16;;;;;;;;;;;;;;;22.20;55.70;102103.22;7289038;19;151948;-49
2021/08/27 12:39:44;;;;;;;;;;;;;;;22.22;55.65;102102.91;7281997;19;152864;-49
2021/08/27 12:42:13;;;;;;;;;;;;;;;22.21;56.38;102107.72;7280827;19;151661;-50